Time;durP1;ratioP1;P1;durP2;ratioP2;P2;SDS_P1;SDS_P2;PMS_P1;PMS_P2;Temp;Humidity;BMP_temperature;BMP_pressure;BME280_temperature;BME280_humidity;BME280_pressure;Samples;Min_cycle;Max_cycle;Signal;HPM_P1;HPM_P2
2021/12/09 00:00:26;;;;;;;17.55;8.85;;;3.00;99.90;;;;;;4996076;28;20095;-72
2021/12/09 00:02:52;;;;;;;20.88;9.23;;;;;;;;;;5011496;28;20113;-71
2021/12/09 00:05:18;;;;;;;14.57;8.63;;;;;;;;;;5012148;28;20049;-71
2021/12/09 00:07:49;;;;;;;17.15;8.95;;;;;;;;;;5012063;28;20494;-71
2021/12/09 00:10:15;;;;;;;17.65;8.60;;;;;;;;;;5010392;28;20049;-71
2021/12/09 00:12:41;;;;;;;17.77;8.15;;;;;;;;;;5011695;28;20046;-71
2021/12/09 00:15:08;;;;;;;15.15;8.63;;;;;;;;;;5012013;28;20042;-71
2021/12/09 00:17:34;;;;;;;18.05;7.95;;;;;;;;;;5012012;28;20038;-71
2021/12/09 00:20:00;;;;;;;18.60;9.35;;;;;;;;;;5011622;28;20034;-71
2021/12/09 00:22:27;;;;;;;17.70;7.78;;;;;;;;;;5011630;28;20112;-72
2021/12/09 00:24:53;;;;;;;17.70;7.90;;;;;;;;;;5011858;28;20045;-72
2021/12/09 00:27:19;;;;;;;13.88;7.78;;;;;;;;;;5011744;28;20034;-72
2021/12/09 00:29:46;;;;;;;14.32;8.40;;;;;;;;;;5011663;28;20046;-72
2021/12/09 00:32:12;;;;;;;17.63;9.10;;;;;;;;;;5011816;28;20045;-72
2021/12/09 00:34:41;;;;;;;14.27;7.88;;;;;;;;;;5011444;28;20065;-72
2021/12/09 00:37:24;;;;;;;12.75;8.18;;;2.80;99.90;;;;;;5011870;28;20057;-71
2021/12/09 00:39:51;;;;;;;12.15;7.78;;;2.80;99.90;;;;;;5008818;28;20069;-71
2021/12/09 00:42:22;;;;;;;14.52;8.00;;;2.60;99.90;;;;;;5011493;28;20026;-71
2021/12/09 00:44:48;;;;;;;16.73;8.88;;;;;;;;;;5011475;28;20482;-71
2021/12/09 00:47:15;;;;;;;19.38;8.63;;;;;;;;;;5011381;28;20034;-71
2021/12/09 00:49:41;;;;;;;16.67;8.25;;;;;;;;;;5011627;28;20052;-71
2021/12/09 00:52:07;;;;;;;17.27;8.15;;;;;;;;;;5011360;28;20045;-71
2021/12/09 00:54:34;;;;;;;18.80;9.07;;;;;;;;;;5011045;28;20042;-71
2021/12/09 00:57:00;;;;;;;15.55;8.60;;;;;;;;;;5010766;28;20486;-71
2021/12/09 00:59:26;;;;;;;23.63;8.70;;;;;;;;;;5011466;28;20493;-71
2021/12/09 01:01:52;;;;;;;15.80;8.13;;;;;;;;;;5011098;28;20037;-71
2021/12/09 01:04:18;;;;;;;13.35;8.43;;;;;;;;;;5011210;28;20065;-71
2021/12/09 01:06:44;;;;;;;18.20;8.52;;;;;;;;;;5011203;28;20038;-71
2021/12/09 01:09:10;;;;;;;20.33;8.60;;;;;;;;;;5012368;28;20049;-71
2021/12/09 01:11:36;;;;;;;16.02;8.65;;;;;;;;;;5015268;28;20498;-71
2021/12/09 01:14:03;;;;;;;17.42;9.02;;;;;;;;;;5015298;28;20073;-71
2021/12/09 01:16:29;;;;;;;19.05;8.90;;;;;;;;;;5015087;28;20044;-71
2021/12/09 01:18:56;;;;;;;17.48;8.63;;;;;;;;;;5015178;28;20056;-71
2021/12/09 01:21:22;;;;;;;13.02;8.32;;;;;;;;;;5014798;28;20061;-71
2021/12/09 01:23:48;;;;;;;18.88;9.40;;;;;;;;;;5015122;28;20072;-71
2021/12/09 01:26:14;;;;;;;17.38;8.35;;;;;;;;;;5016236;28;20088;-71
2021/12/09 01:28:47;;;;;;;13.73;8.55;;;;;;;;;;5014860;28;20081;-71
2021/12/09 01:31:20;;;;;;;15.88;8.75;;;2.50;99.90;;;;;;5014927;28;20056;-71
2021/12/09 01:33:47;;;;;;;20.08;9.93;;;;;;;;;;4999875;28;20533;-71
2021/12/09 01:36:13;;;;;;;20.13;9.23;;;;;;;;;;5014916;28;20041;-71
2021/12/09 01:38:39;;;;;;;16.13;8.88;;;;;;;;;;5014898;28;20081;-71
2021/12/09 01:41:05;;;;;;;17.15;9.60;;;;;;;;;;5014985;28;20034;-71
2021/12/09 01:43:31;;;;;;;16.60;9.88;;;;;;;;;;5014682;28;20127;-71
2021/12/09 01:46:06;;;;;;;15.93;9.35;;;3.00;99.90;;;;;;5015015;28;20509;-71
2021/12/09 01:48:32;;;;;;;19.20;9.95;;;;;;;;;;4998176;28;20057;-71
2021/12/09 01:50:58;;;;;;;17.40;9.73;;;;;;;;;;5014577;28;20490;-71
2021/12/09 01:53:25;;;;;;;16.80;9.27;;;;;;;;;;5014823;28;20033;-71
2021/12/09 01:55:51;;;;;;;20.63;10.07;;;;;;;;;;5014594;28;20045;-71
2021/12/09 01:58:17;;;;;;;17.58;9.35;;;;;;;;;;5014601;28;20092;-71
2021/12/09 02:00:43;;;;;;;20.45;9.70;;;;;;;;;;5014298;28;20045;-71
2021/12/09 02:03:09;;;;;;;20.75;10.13;;;;;;;;;;5012103;28;20038;-71
2021/12/09 02:05:40;;;;;;;19.92;10.52;;;;;;;;;;5014370;28;20046;-71
2021/12/09 02:08:07;;;;;;;14.18;9.60;;;;;;;;;;5014215;28;20042;-71
2021/12/09 02:10:33;;;;;;;20.10;10.77;;;;;;;;;;5014143;28;20038;-71
2021/12/09 02:12:59;;;;;;;19.65;11.05;;;;;;;;;;4998154;28;20034;-71
2021/12/09 02:15:26;;;;;;;19.88;10.40;;;;;;;;;;5014398;28;20065;-71
2021/12/09 02:17:52;;;;;;;22.35;10.95;;;2.80;99.90;;;;;;5013972;28;20505;-71
2021/12/09 02:20:18;;;;;;;19.55;11.10;;;;;;;;;;5014878;28;20038;-71
2021/12/09 02:22:46;;;;;;;20.90;10.98;;;;;;;;;;5013727;28;20038;-71
2021/12/09 02:25:13;;;;;;;20.65;10.50;;;2.40;99.90;;;;;;5014219;28;20046;-71
2021/12/09 02:30:49;;;;;;;20.45;11.00;;;;;;;;;;6057485;23;20024;31
2021/12/09 02:36:18;;;;;;;18.98;10.98;;;;;;;;;;5104450;23;20055;-69
2021/12/09 02:38:45;;;;;;;23.92;11.48;;;;;;;;;;4950792;28;20043;-69
2021/12/09 02:41:19;;;;;;;19.48;10.75;;;2.20;99.90;;;;;;4922337;29;20130;-69
2021/12/09 02:43:48;;;;;;;16.80;10.45;;;2.40;99.90;;;;;;4944970;29;20031;-69
2021/12/09 02:46:15;;;;;;;19.10;10.80;;;;;;;;;;4956968;28;20047;-69
2021/12/09 02:48:42;;;;;;;19.90;10.00;;;;;;;;;;4948199;29;20079;-69
2021/12/09 02:51:08;;;;;;;22.85;10.50;;;;;;;;;;4920998;29;20459;-71
2021/12/09 02:53:35;;;;;;;16.35;10.93;;;2.20;99.90;;;;;;4951266;28;20040;-72
2021/12/09 02:56:02;;;;;;;16.33;9.63;;;2.40;99.90;;;;;;4921115;29;20066;-72
2021/12/09 02:58:28;;;;;;;18.70;11.02;;;1.50;99.90;;;;;;4939626;28;20047;-70
2021/12/09 03:01:20;;;;;;;22.48;11.68;;;2.20;99.90;;;;;;4940267;29;20529;-72
2021/12/09 03:03:51;;;;;;;23.42;11.43;;;2.30;99.90;;;;;;4951506;28;20044;-72
2021/12/09 03:06:22;;;;;;;15.10;10.85;;;;;;;;;;4943782;29;20586;-72
2021/12/09 03:08:49;;;;;;;23.30;12.43;;;;;;;;;;4950280;28;20443;-72
2021/12/09 03:11:19;;;;;;;17.67;11.35;;;2.30;99.90;;;;;;4935997;29;20102;-72
2021/12/09 03:13:46;;;;;;;22.30;11.52;;;2.20;99.90;;;;;;4938545;29;20106;-72
2021/12/09 03:16:12;;;;;;;21.10;11.50;;;2.00;99.90;;;;;;4938858;29;20039;-72
2021/12/09 03:18:47;;;;;;;23.35;11.70;;;2.40;99.90;;;;;;4954623;28;20039;-72
2021/12/09 03:21:20;;;;;;;20.00;12.23;;;2.70;99.90;;;;;;4936642;29;20075;-72
2021/12/09 03:23:46;;;;;;;19.88;11.48;;;1.30;99.90;;;;;;4937348;29;20044;-70
2021/12/09 03:26:12;;;;;;;19.63;11.77;;;;;;;;;;4955589;29;20089;-71
2021/12/09 03:28:38;;;;;;;25.88;11.98;;;;;;;;;;4955286;28;20050;-70
2021/12/09 03:31:05;;;;;;;23.77;12.15;;;;;;;;;;4936417;29;20043;-69
2021/12/09 03:33:31;;;;;;;22.23;11.60;;;;;;;;;;4942616;29;20043;-70
2021/12/09 03:36:06;;;;;;;24.00;12.00;;;2.20;99.90;;;;;;4937720;29;20067;-69
2021/12/09 03:38:33;;;;;;;17.92;11.55;;;2.90;99.90;;;;;;4953422;29;20665;-70
2021/12/09 03:40:59;;;;;;;24.50;12.73;;;;;;;;;;4952129;28;20047;-70
2021/12/09 03:43:26;;;;;;;23.10;12.70;;;;;;;;;;4955384;28;20106;-70
2021/12/09 03:45:55;;;;;;;25.42;13.35;;;2.00;99.90;;;;;;4954848;28;20454;-72
2021/12/09 03:48:22;;;;;;;25.75;13.23;;;2.20;99.90;;;;;;4940051;29;20050;-72
2021/12/09 03:50:48;;;;;;;21.77;12.00;;;;;;;;;;4949698;28;20118;-72
2021/12/09 03:53:14;;;;;;;29.52;12.50;;;;;;;;;;4954509;28;20039;-72
2021/12/09 03:55:41;;;;;;;23.20;11.57;;;;;;;;;;4942629;29;20551;-72
2021/12/09 03:58:07;;;;;;;18.63;12.07;;;;;;;;;;4932932;29;20074;-72
2021/12/09 04:00:33;;;;;;;20.38;12.00;;;;;;;;;;4928562;29;20039;-72
2021/12/09 04:02:59;;;;;;;18.33;11.75;;;;;;;;;;4954953;28;20043;-72
2021/12/09 04:05:27;;;;;;;23.88;11.68;;;2.00;99.90;;;;;;4945644;29;20050;-70
2021/12/09 04:07:53;;;;;;;23.75;12.02;;;;;;;;;;4927655;29;20051;-69
2021/12/09 04:10:19;;;;;;;21.63;12.57;;;;;;;;;;4927423;28;20109;-72
2021/12/09 04:12:46;;;;;;;23.27;12.80;;;;;;;;;;4938728;29;20047;-72
2021/12/09 04:15:12;;;;;;;24.17;13.02;;;;;;;;;;4948819;29;20484;-72
2021/12/09 04:17:38;;;;;;;20.13;11.40;;;;;;;;;;4935547;29;20040;-72
2021/12/09 04:20:06;;;;;;;21.40;12.32;;;1.40;99.90;;;;;;4939152;29;20031;-72
2021/12/09 04:22:32;;;;;;;22.20;13.27;;;;;;;;;;4938931;29;20039;-72
2021/12/09 04:24:59;;;;;;;22.85;13.30;;;;;;;;;;4952403;29;20039;-72
2021/12/09 04:27:25;;;;;;;27.65;12.18;;;;;;;;;;4942310;29;20039;-72
2021/12/09 04:29:52;;;;;;;25.73;13.45;;;2.00;99.90;;;;;;4944538;29;20091;-72
2021/12/09 04:32:18;;;;;;;20.15;12.02;;;;;;;;;;4954613;28;20054;-72
2021/12/09 04:34:44;;;;;;;21.42;12.20;;;;;;;;;;4954168;28;20079;-72
2021/12/09 04:37:10;;;;;;;20.42;11.65;;;2.00;99.90;;;;;;4935374;29;20103;-72
2021/12/09 04:39:37;;;;;;;24.83;12.55;;;;;;;;;;4934555;29;20047;-72
2021/12/09 04:42:04;;;;;;;22.48;11.90;;;2.00;99.90;;;;;;4950443;28;20039;-72
2021/12/09 04:44:30;;;;;;;19.50;11.80;;;;;;;;;;4934271;29;20039;-72
2021/12/09 04:46:56;;;;;;;23.00;11.88;;;;;;;;;;4953229;28;20431;-72
2021/12/09 04:49:23;;;;;;;19.52;12.10;;;1.70;99.90;;;;;;4953899;28;20368;-72
2021/12/09 04:51:49;;;;;;;24.17;12.65;;;;;;;;;;4940056;29;20505;-72
2021/12/09 04:54:15;;;;;;;18.63;12.32;;;;;;;;;;4934241;29;20127;-73
2021/12/09 04:56:41;;;;;;;21.52;12.90;;;;;;;;;;4942284;29;20044;-72
2021/12/09 04:59:08;;;;;;;20.65;12.68;;;;;;;;;;4944588;29;20440;-72
2021/12/09 05:01:35;;;;;;;24.23;12.30;;;1.90;99.90;;;;;;4941238;29;20091;-71
2021/12/09 05:04:01;;;;;;;21.42;11.95;;;;;;;;;;4934470;29;20078;-72
2021/12/09 05:06:29;;;;;;;22.48;12.82;;;1.90;99.90;;;;;;4934309;29;20131;-69
2021/12/09 05:08:55;;;;;;;20.55;12.10;;;2.50;99.90;;;;;;4934436;29;20126;-69
2021/12/09 05:14:04;;;;;;;25.58;12.25;;;1.90;99.90;;;;;;4953534;28;20070;-69
2021/12/09 05:16:30;;;;;;;23.33;13.02;;;;;;;;;;4946249;28;20118;-69
2021/12/09 05:18:58;;;;;;;23.77;13.52;;;1.70;99.90;;;;;;4918007;29;20558;-69
2021/12/09 05:21:32;;;;;;;21.05;11.95;;;1.90;99.90;;;;;;4937606;29;20043;-69
2021/12/09 05:23:58;;;;;;;24.60;12.70;;;;;;;;;;4934049;29;20114;-69
2021/12/09 05:26:30;;;;;;;22.55;11.93;;;1.80;99.90;;;;;;4942921;28;20040;-69
2021/12/09 05:28:57;;;;;;;25.67;12.48;;;;;;;;;;4933929;29;20511;-72
2021/12/09 05:34:12;;;;;;;23.52;12.05;;;;;;;;;;4933728;29;20102;-69
2021/12/09 05:36:38;;;;;;;25.40;12.52;;;;;;;;;;4897500;29;1209467;-69
2021/12/09 05:39:07;;;;;;;26.55;12.25;;;2.00;99.90;;;;;;4934782;29;20044;-69
2021/12/09 05:41:34;;;;;;;23.00;12.55;;;;;;;;;;4937308;28;20098;-72
2021/12/09 05:44:01;;;;;;;27.85;12.82;;;1.70;99.90;;;;;;4953860;28;20533;-72
2021/12/09 05:46:27;;;;;;;24.25;13.07;;;;;;;;;;4951652;29;20039;-72
2021/12/09 05:48:53;;;;;;;19.98;11.88;;;;;;;;;;4944074;29;20122;-72
2021/12/09 05:51:22;;;;;;;25.63;11.90;;;1.70;99.90;;;;;;4940471;29;20043;-71
2021/12/09 05:53:49;;;;;;;21.85;11.70;;;;;;;;;;4951461;29;20452;-72
2021/12/09 05:56:15;;;;;;;19.20;11.77;;;;;;;;;;4921315;29;20373;-72
2021/12/09 05:58:41;;;;;;;24.33;12.45;;;;;;;;;;4954512;29;20043;-72
2021/12/09 06:01:07;;;;;;;22.30;12.65;;;;;;;;;;4953648;29;20039;-71
2021/12/09 06:03:33;;;;;;;22.33;11.93;;;;;;;;;;4949620;28;20140;-71
2021/12/09 06:06:00;;;;;;;22.48;12.45;;;;;;;;;;4953901;28;20043;-71
2021/12/09 06:08:26;;;;;;;21.50;12.32;;;;;;;;;;4941655;29;20065;-72
2021/12/09 06:10:52;;;;;;;26.33;12.68;;;;;;;;;;4937735;29;20102;-71
2021/12/09 06:13:19;;;;;;;26.88;12.73;;;;;;;;;;4938794;29;20051;-71
2021/12/09 06:15:45;;;;;;;24.52;13.90;;;;;;;;;;4938712;29;20141;-71
2021/12/09 06:18:11;;;;;;;21.58;12.77;;;;;;;;;;4933789;29;20038;-71
2021/12/09 06:20:37;;;;;;;26.83;13.00;;;;;;;;;;4936871;29;20039;-71
2021/12/09 06:23:03;;;;;;;36.83;12.93;;;;;;;;;;4937584;29;20040;-72
2021/12/09 06:25:31;;;;;;;22.88;12.80;;;;;;;;;;4936052;28;20036;-71
2021/12/09 06:27:57;;;;;;;27.05;12.75;;;;;;;;;;4954880;28;20051;-71
2021/12/09 06:30:23;;;;;;;20.35;11.18;;;;;;;;;;4939902;29;20039;-71
2021/12/09 06:32:50;;;;;;;24.85;12.35;;;;;;;;;;4953609;28;20102;-71
2021/12/09 06:35:16;;;;;;;27.75;12.02;;;;;;;;;;4939518;29;20064;-71
2021/12/09 06:37:45;;;;;;;19.38;11.45;;;;;;;;;;4938724;29;20055;-72
2021/12/09 06:40:14;;;;;;;25.33;12.05;;;1.60;99.90;;;;;;4954538;28;20070;-72
2021/12/09 06:42:42;;;;;;;24.13;11.95;;;1.60;99.90;;;;;;4938927;29;20043;-71
2021/12/09 06:45:10;;;;;;;17.27;10.88;;;1.00;99.90;;;;;;4945676;28;20078;-71
2021/12/09 06:47:36;;;;;;;33.75;12.95;;;;;;;;;;4950004;28;20047;-71
2021/12/09 06:50:02;;;;;;;30.65;11.95;;;;;;;;;;4939221;29;20038;-71
2021/12/09 06:52:28;;;;;;;28.27;12.35;;;;;;;;;;4942758;28;20040;-71
2021/12/09 06:54:54;;;;;;;28.73;12.30;;;;;;;;;;4946488;28;20047;-71
2021/12/09 06:57:20;;;;;;;26.20;12.07;;;;;;;;;;4931055;28;20045;-71
2021/12/09 06:59:46;;;;;;;28.38;12.15;;;;;;;;;;4954192;28;20551;-71
2021/12/09 07:02:12;;;;;;;26.88;11.55;;;;;;;;;;4948927;29;20035;-71
2021/12/09 07:04:38;;;;;;;28.85;12.60;;;;;;;;;;4949307;29;20039;-71
2021/12/09 07:07:05;;;;;;;39.22;14.35;;;;;;;;;;4946455;28;20098;-71
2021/12/09 07:09:31;;;;;;;37.17;15.80;;;;;;;;;;4936873;29;20118;-71
2021/12/09 07:11:57;;;;;;;37.65;13.10;;;;;;;;;;4934794;29;20126;-71
2021/12/09 07:14:24;;;;;;;47.90;16.80;;;;;;;;;;4938365;29;20075;-71
2021/12/09 07:16:50;;;;;;;39.92;14.02;;;;;;;;;;4940293;29;20050;-71
2021/12/09 07:19:16;;;;;;;28.73;12.18;;;;;;;;;;4935644;29;20514;-71
2021/12/09 07:21:42;;;;;;;25.70;11.82;;;;;;;;;;4939012;29;20061;-71
2021/12/09 07:24:08;;;;;;;23.63;11.25;;;;;;;;;;4938678;29;21279;-71
2021/12/09 07:26:35;;;;;;;26.08;12.88;;;;;;;;;;4937490;28;20035;-71
2021/12/09 07:29:01;;;;;;;29.40;12.30;;;;;;;;;;4952856;28;20067;-71
2021/12/09 07:31:27;;;;;;;27.45;12.07;;;1.60;99.90;;;;;;4953239;28;20534;-68
2021/12/09 07:33:54;;;;;;;23.83;11.02;;;;;;;;;;4952508;29;20039;-68
2021/12/09 07:36:20;;;;;;;28.27;12.05;;;;;;;;;;4937667;29;20106;-68
2021/12/09 07:38:46;;;;;;;27.50;11.98;;;;;;;;;;4952061;28;20042;-69
2021/12/09 07:41:14;;;;;;;26.90;10.93;;;1.60;99.90;;;;;;4937336;29;20082;-68
2021/12/09 07:43:40;;;;;;;33.03;10.93;;;;;;;;;;4944865;28;20126;-72
2021/12/09 07:46:06;;;;;;;26.15;11.80;;;;;;;;;;4953682;29;20126;-71
2021/12/09 07:48:32;;;;;;;28.55;11.48;;;;;;;;;;4935430;29;20046;-71
2021/12/09 07:50:58;;;;;;;21.00;10.90;;;;;;;;;;4937305;29;20039;-71
2021/12/09 07:53:25;;;;;;;27.15;10.82;;;;;;;;;;4946608;29;20050;-71
2021/12/09 07:55:52;;;;;;;26.75;10.82;;;1.70;99.90;;;;;;4953277;28;20043;-68
2021/12/09 07:58:18;;;;;;;25.08;10.77;;;;;;;;;;4943541;29;20380;-71
2021/12/09 08:00:44;;;;;;;31.38;9.70;;;;;;;;;;4939803;28;20047;-70
2021/12/09 08:03:11;;;;;;;24.77;11.57;;;;;;;;;;4940632;29;20031;-71
2021/12/09 08:05:38;;;;;;;31.17;11.35;;;;;;;;;;4945421;28;20274;-70
2021/12/09 08:08:05;;;;;;;22.02;10.73;;;;;;;;;;4949032;29;20122;-71
2021/12/09 08:10:31;;;;;;;27.17;10.75;;;;;;;;;;4942394;29;20045;-70
2021/12/09 08:12:58;;;;;;;25.20;11.60;;;1.10;99.90;;;;;;4942587;29;20048;-70
2021/12/09 08:15:29;;;;;;;19.45;10.40;;;1.80;99.90;;;;;;4928659;29;20074;-68
2021/12/09 08:18:02;;;;;;;22.75;10.75;;;;;;;;;;4945294;29;20116;-71
2021/12/09 08:20:31;;;;;;;25.58;11.23;;;1.70;99.90;;;;;;4945770;28;20479;-71
2021/12/09 08:22:57;;;;;;;27.90;10.95;;;;;;;;;;4950832;29;20071;-71
2021/12/09 08:25:23;;;;;;;21.55;10.13;;;;;;;;;;4928649;29;20065;-71
2021/12/09 08:27:50;;;;;;;30.35;11.13;;;;;;;;;;4942883;28;20050;-69
2021/12/09 08:30:20;;;;;;;25.60;10.50;;;1.80;99.90;;;;;;4935376;29;20062;-73
2021/12/09 08:32:46;;;;;;;33.22;11.25;;;;;;;;;;4950833;28;20134;-68
2021/12/09 08:35:15;;;;;;;23.50;10.10;;;;;;;;;;4954250;29;20043;-69
2021/12/09 08:37:41;;;;;;;20.33;10.73;;;;;;;;;;4954103;29;20071;-69
2021/12/09 08:40:07;;;;;;;23.92;10.30;;;;;;;;;;4953787;29;20122;-69
2021/12/09 08:42:34;;;;;;;17.70;10.05;;;;;;;;;;4954457;29;20085;-69
2021/12/09 08:45:00;;;;;;;26.73;10.70;;;;;;;;;;4954236;29;20043;-69
2021/12/09 08:47:26;;;;;;;21.52;10.20;;;;;;;;;;4954516;29;20047;-69
2021/12/09 08:49:52;;;;;;;16.48;9.60;;;;;;;;;;4954194;29;20058;-69
2021/12/09 08:52:18;;;;;;;21.02;10.98;;;;;;;;;;4954238;28;20047;-69
2021/12/09 08:54:44;;;;;;;22.27;10.02;;;;;;;;;;4954268;28;20082;-69
2021/12/09 08:57:11;;;;;;;26.08;10.23;;;;;;;;;;4954015;29;20047;-69
2021/12/09 08:59:37;;;;;;;22.80;10.48;;;;;;;;;;4954203;28;20043;-69
2021/12/09 09:02:04;;;;;;;24.58;12.60;;;2.60;99.90;;;;;;4954304;29;20043;-69
2021/12/09 09:04:30;;;;;;;20.77;9.80;;;;;;;;;;4938113;29;20489;-69
2021/12/09 09:07:00;;;;;;;20.90;10.23;;;2.00;99.90;;;;;;4954030;28;20055;-69
2021/12/09 09:09:27;;;;;;;24.05;10.45;;;;;;;;;;4953953;29;20043;-69
2021/12/09 09:11:56;;;;;;;21.10;9.82;;;1.30;99.90;;;;;;4954249;29;20114;-69
2021/12/09 09:14:22;;;;;;;20.05;10.05;;;;;;;;;;4953925;28;20045;-69
2021/12/09 09:16:49;;;;;;;20.02;10.32;;;;;;;;;;4953873;29;20488;-69
2021/12/09 09:19:16;;;;;;;24.23;8.88;;;;;;;;;;4953983;29;20559;-69
2021/12/09 09:21:42;;;;;;;22.70;9.70;;;;;;;;;;4954155;29;20039;-69
2021/12/09 09:24:08;;;;;;;21.90;9.88;;;;;;;;;;4954149;29;20078;-69
2021/12/09 09:26:34;;;;;;;20.15;9.07;;;;;;;;;;4954015;29;20043;-69
2021/12/09 09:29:00;;;;;;;19.77;9.18;;;2.70;99.90;;;;;;4953736;28;20053;-69
2021/12/09 09:31:30;;;;;;;28.73;10.23;;;;;;;;;;4957265;29;20051;-69
2021/12/09 09:33:56;;;;;;;22.15;9.85;;;;;;;;;;4942567;29;20047;-69
2021/12/09 09:36:22;;;;;;;23.10;9.23;;;;;;;;;;4957498;29;20060;-69
2021/12/09 09:38:48;;;;;;;19.77;9.45;;;3.10;99.90;;;;;;4957444;29;20043;-69
2021/12/09 09:41:17;;;;;;;19.00;9.35;;;;;;;;;;4957339;28;20039;-69
2021/12/09 09:46:19;;;;;;;18.88;9.85;;;2.50;99.90;;;;;;4957391;29;20059;-70
2021/12/09 09:48:47;;;;;;;25.13;10.35;;;2.50;99.90;;;;;;4941612;29;20051;-69
2021/12/09 09:51:13;;;;;;;20.33;10.38;;;;;;;;;;4957571;29;20102;-69
2021/12/09 09:53:41;;;;;;;21.00;11.20;;;;;;;;;;4957437;29;20053;-69
2021/12/09 09:56:13;;;;;;;20.05;9.88;;;;;;;;;;4957216;29;20044;-70
2021/12/09 09:59:10;;;;;;;23.80;10.23;;;2.40;99.90;;;;;;4941497;29;20101;-69
2021/12/09 10:01:39;;;;;;;17.02;9.13;;;2.70;99.90;;;;;;4949498;28;20051;-70
2021/12/09 10:04:11;;;;;;;19.88;9.43;;;;;;;;;;4957120;28;20043;-70
2021/12/09 10:06:39;;;;;;;20.42;10.05;;;2.70;99.90;;;;;;4956939;29;20051;-70
2021/12/09 10:09:06;;;;;;;19.40;9.15;;;2.70;99.90;;;;;;4956921;29;20487;-69
2021/12/09 10:11:33;;;;;;;24.75;9.52;;;;;;;;;;4941047;29;20047;-69
2021/12/09 10:14:12;;;;;;;20.27;8.95;;;2.60;99.90;;;;;;4957103;28;20126;-70
2021/12/09 10:16:39;;;;;;;27.00;9.88;;;;;;;;;;4956687;29;20059;-70
2021/12/09 10:19:22;;;;;;;24.02;10.57;;;2.70;99.90;;;;;;4958071;29;20372;-69
2021/12/09 10:21:49;;;;;;;24.77;11.43;;;2.70;99.90;;;;;;4955744;29;20054;-69
2021/12/09 10:24:16;;;;;;;24.67;10.32;;;2.90;99.90;;;;;;4956738;29;20053;-70
2021/12/09 10:26:43;;;;;;;28.10;10.05;;;;;;;;;;4940721;29;20047;-69
2021/12/09 10:29:31;;;;;;;18.52;9.77;;;2.80;99.90;;;;;;4956683;29;20082;-70
2021/12/09 10:32:03;;;;;;;24.13;10.45;;;3.00;99.90;;;;;;4956728;29;20131;-69
2021/12/09 10:34:39;;;;;;;30.75;11.60;;;;;;;;;;4956387;29;20514;-70
2021/12/09 10:37:11;;;;;;;33.30;11.00;;;2.80;99.90;;;;;;4956353;28;20385;-69
2021/12/09 10:39:37;;;;;;;26.10;11.95;;;;;;;;;;4956519;28;20513;-70
2021/12/09 10:42:17;;;;;;;24.70;11.27;;;3.00;99.90;;;;;;4956174;28;20135;-70
2021/12/09 10:44:51;;;;;;;27.33;11.25;;;3.20;99.90;;;;;;4956351;29;20094;-70
2021/12/09 10:47:47;;;;;;;29.73;12.52;;;3.70;99.90;;;;;;4956270;29;20134;-69
2021/12/09 10:50:29;;;;;;;25.85;13.82;;;2.90;99.90;;;;;;4956208;28;20046;-70
2021/12/09 10:53:04;;;;;;;25.33;10.48;;;3.00;99.90;;;;;;4940590;29;20541;-77
2021/12/09 10:55:35;;;;;;;33.28;13.23;;;3.10;99.90;;;;;;4956119;28;20086;-69
2021/12/09 10:58:08;;;;;;;31.48;12.32;;;3.00;99.90;;;;;;4956358;28;20119;-73
2021/12/09 11:00:36;;;;;;;;;;;3.20;99.90;;;;;;4940471;29;20121;-69
2021/12/09 11:03:13;;;;;;;24.25;12.65;;;;;;;;;;4955932;28;19926;-70
2021/12/09 11:05:47;;;;;;;49.63;15.07;;;3.20;99.90;;;;;;4956239;28;20044;-70
2021/12/09 11:08:16;;;;;;;30.67;13.98;;;3.30;99.90;;;;;;4939991;29;20125;-69
2021/12/09 11:10:47;;;;;;;31.88;14.18;;;;;;;;;;4955854;29;20054;-69
2021/12/09 11:13:13;;;;;;;25.95;12.13;;;;;;;;;;4940687;29;20138;-69
2021/12/09 11:15:47;;;;;;;30.23;13.93;;;3.10;99.90;;;;;;4955721;29;20055;-69
2021/12/09 11:18:45;;;;;;;26.65;13.60;;;3.30;99.90;;;;;;4955748;29;20039;-70
2021/12/09 11:21:14;;;;;;;40.53;13.48;;;3.20;99.90;;;;;;4948051;29;20043;-70
2021/12/09 11:23:56;;;;;;;33.03;13.82;;;3.10;99.90;;;;;;4955540;29;20047;-69
2021/12/09 11:26:55;;;;;;;34.15;13.50;;;3.20;99.90;;;;;;4955597;29;20047;-69
2021/12/09 11:29:25;;;;;;;35.08;14.50;;;;;;;;;;4955490;29;20047;-69
2021/12/09 11:32:09;;;;;;;34.60;15.35;;;3.50;99.90;;;;;;4955596;29;20047;-69
2021/12/09 11:35:35;;;;;;;38.50;16.70;;;3.30;99.90;;;;;;4955295;29;20110;-70
2021/12/09 11:37:40;;;;;;;49.35;16.13;;;3.60;99.90;;;;;;4947039;29;20047;-69
2021/12/09 11:40:07;;;;;;;39.65;16.23;;;;;;;;;;4939652;29;20097;-69
2021/12/09 11:42:55;;;;;;;45.40;17.08;;;3.40;99.90;;;;;;4955482;29;20054;-70
2021/12/09 11:45:25;;;;;;;39.33;17.17;;;3.40;99.90;;;;;;4955288;29;20051;-70
2021/12/09 11:47:53;;;;;;;40.17;15.75;;;3.60;99.90;;;;;;4955256;28;20043;-69
2021/12/09 11:50:30;;;;;;;37.80;17.08;;;3.70;99.90;;;;;;4955136;29;20047;-70
2021/12/09 11:53:00;;;;;;;38.08;17.33;;;3.70;99.90;;;;;;4954745;28;20431;-70
2021/12/09 11:55:38;;;;;;;38.00;16.45;;;3.50;99.90;;;;;;4954922;29;20046;-69
2021/12/09 11:58:13;;;;;;;30.13;15.40;;;3.60;99.90;;;;;;4955026;29;20443;-69
2021/12/09 12:15:24;;;;;;;34.50;16.90;;;;;;;;;;4946021;29;20035;-70
2021/12/09 12:18:13;;;;;;;36.33;18.13;;;;;;;;;;4951867;28;20059;-75
2021/12/09 12:20:46;;;;;;;37.38;17.77;;;;;;;;;;4954226;29;20046;-71
2021/12/09 12:29:04;;;;;;;44.10;18.75;;;3.60;99.90;;;;;;4954669;28;20043;-72
2021/12/09 12:35:05;;;;;;;36.17;17.60;;;3.70;99.90;;;;;;4954096;28;20053;-70
2021/12/09 12:40:31;;;;;;;44.40;18.92;;;3.60;99.90;;;;;;4953591;29;20086;-70
2021/12/09 12:43:05;;;;;;;39.28;18.13;;;3.00;99.90;;;;;;4954349;29;20079;-69
2021/12/09 12:45:47;;;;;;;43.35;18.05;;;3.80;99.90;;;;;;4954313;29;20483;-70
2021/12/09 12:51:37;;;;;;;43.65;18.25;;;3.70;99.90;;;;;;4944991;28;20035;-69
2021/12/09 12:54:25;;;;;;;32.25;16.98;;;3.90;99.90;;;;;;4954113;29;20039;-69
2021/12/09 12:56:56;;;;;;;38.72;18.63;;;;;;;;;;4954259;29;20059;-69
2021/12/09 12:59:28;;;;;;;42.13;19.52;;;3.90;99.90;;;;;;4954125;28;20047;-69
2021/12/09 13:02:02;;;;;;;56.33;20.10;;;3.80;99.90;;;;;;4954359;29;20062;-69
2021/12/09 13:04:54;;;;;;;40.85;18.92;;;4.00;99.90;;;;;;4935341;29;20039;-69
2021/12/09 13:07:41;;;;;;;42.70;18.10;;;;;;;;;;4952108;29;20435;-69
2021/12/09 13:10:46;;;;;;;49.58;19.23;;;4.00;99.90;;;;;;4953014;29;20341;-69
2021/12/09 13:13:31;;;;;;;41.90;18.60;;;3.90;99.90;;;;;;4938330;29;20039;-68
2021/12/09 13:16:40;;;;;;;35.75;17.27;;;;;;;;;;4953669;29;20126;-68
2021/12/09 13:22:02;;;;;;;45.10;20.13;;;3.90;99.90;;;;;;4918396;29;20375;-68
2021/12/09 13:24:58;;;;;;;43.35;17.77;;;4.50;99.90;;;;;;4943082;29;20059;-69
2021/12/09 13:27:54;;;;;;;43.60;18.33;;;3.80;99.90;;;;;;4945094;29;20055;-68
2021/12/09 13:46:53;;;;;;;44.92;19.67;;;4.70;99.90;;;;;;4934270;29;20054;-69
2021/12/09 13:49:36;;;;;;;39.60;18.02;;;;;;;;;;4935041;29;20054;-69
2021/12/09 13:54:06;;;;;;;55.45;21.25;;;4.50;99.90;;;;;;4934938;29;20180;-68
2021/12/09 13:54:54;;;;;;;42.20;19.90;;;;;;;;;;4934349;29;20059;-69
2021/12/09 13:57:33;;;;;;;39.78;19.60;;;4.00;99.90;;;;;;4934581;29;20047;-69
2021/12/09 13:59:59;;;;;;;39.55;18.67;;;;;;;;;;4934461;29;20115;-69
2021/12/09 14:02:26;;;;;;;48.00;20.13;;;;;;;;;;4934582;29;20040;-68
2021/12/09 14:04:54;;;;;;;41.15;18.40;;;4.10;99.90;;;;;;4934507;29;20131;-68
2021/12/09 14:07:32;;;;;;;41.25;18.17;;;4.20;99.90;;;;;;4919109;29;20114;-68
2021/12/09 14:10:01;;;;;;;52.38;18.30;;;4.80;99.90;;;;;;4934789;29;20150;-68
2021/12/09 14:12:38;;;;;;;39.25;18.90;;;4.00;99.90;;;;;;4934339;29;20044;-68
2021/12/09 14:15:12;;;;;;;52.28;19.73;;;4.60;99.90;;;;;;4934273;29;20048;-69
2021/12/09 14:17:41;;;;;;;48.65;18.50;;;;;;;;;;4937691;29;20044;-69
2021/12/09 14:20:20;;;;;;;36.90;17.42;;;4.10;99.90;;;;;;4937867;29;20044;-68
2021/12/09 14:22:50;;;;;;;39.70;17.55;;;4.10;99.90;;;;;;4937671;29;20047;-69
2021/12/09 14:25:28;;;;;;;43.95;18.20;;;4.00;99.90;;;;;;4937893;29;20039;-68
2021/12/09 14:27:55;;;;;;;31.90;16.70;;;4.20;99.90;;;;;;4937548;29;20075;-69
2021/12/09 14:30:23;;;;;;;44.17;17.77;;;4.30;99.90;;;;;;4937884;29;20103;-69
2021/12/09 14:32:52;;;;;;;36.28;16.95;;;4.30;99.90;;;;;;4937732;29;20039;-68
2021/12/09 14:35:30;;;;;;;40.00;18.77;;;4.70;99.90;;;;;;4937080;29;20051;-69
2021/12/09 14:37:56;;;;;;;37.67;17.13;;;;;;;;;;4937431;29;20051;-69
2021/12/09 14:40:41;;;;;;;41.97;18.10;;;4.70;99.90;;;;;;4937397;29;20039;-69
2021/12/09 14:43:12;;;;;;;38.78;16.35;;;4.00;99.90;;;;;;4937230;29;20449;-69
2021/12/09 14:45:56;;;;;;;39.35;16.50;;;3.90;99.90;;;;;;4937385;29;20050;-68
2021/12/09 14:48:37;;;;;;;37.17;16.83;;;4.20;99.90;;;;;;4937289;29;20048;-68
2021/12/09 14:51:26;;;;;;;42.53;17.15;;;4.00;99.90;;;;;;4921324;29;20052;-68
2021/12/09 14:54:04;;;;;;;37.13;16.85;;;3.90;99.90;;;;;;4937054;29;20047;-69